sensor_id;sensor_type;location;lat;lon;timestamp;pressure;altitude;pressure_sealevel;temperature;humidity
20017;BME280;10169;42.664;23.610;2023-07-13T00:01:42;95585.00;;;18.44;100.00
20017;BME280;10169;42.664;23.610;2023-07-13T00:03:43;95585.31;;;18.38;100.00
20017;BME280;10169;42.664;23.610;2023-07-13T00:05:43;95582.13;;;18.31;100.00
20017;BME280;10169;42.664;23.610;2023-07-13T00:07:43;95582.69;;;18.28;100.00
20017;BME280;10169;42.664;23.610;2023-07-13T00:09:46;95574.31;;;18.29;100.00
20017;BME280;10169;42.664;23.610;2023-07-13T00:11:50;95576.22;;;18.29;100.00
20017;BME280;10169;42.664;23.610;2023-07-13T00:13:50;95571.41;;;18.26;100.00
20017;BME280;10169;42.664;23.610;2023-07-13T00:15:51;95568.94;;;18.29;100.00
20017;BME280;10169;42.664;23.610;2023-07-13T00:17:54;95568.94;;;18.29;100.00
20017;BME280;10169;42.664;23.610;2023-07-13T00:19:55;95571.91;;;18.28;100.00
20017;BME280;10169;42.664;23.610;2023-07-13T00:21:55;95570.31;;;18.27;100.00
20017;BME280;10169;42.664;23.610;2023-07-13T00:23:56;95581.34;;;18.25;100.00
20017;BME280;10169;42.664;23.610;2023-07-13T00:25:56;95569.75;;;18.30;100.00
20017;BME280;10169;42.664;23.610;2023-07-13T00:27:57;95561.66;;;18.35;100.00
20017;BME280;10169;42.664;23.610;2023-07-13T00:29:58;95557.59;;;18.37;100.00
20017;BME280;10169;42.664;23.610;2023-07-13T00:31:58;95559.44;;;18.47;100.00
20017;BME280;10169;42.664;23.610;2023-07-13T00:33:59;95552.44;;;18.46;100.00
20017;BME280;10169;42.664;23.610;2023-07-13T00:36:00;95551.38;;;18.42;100.00
20017;BME280;10169;42.664;23.610;2023-07-13T00:38:00;95551.09;;;18.38;100.00
20017;BME280;10169;42.664;23.610;2023-07-13T00:40:02;95551.75;;;18.25;100.00
20017;BME280;10169;42.664;23.610;2023-07-13T00:42:03;95558.09;;;18.05;100.00
20017;BME280;10169;42.664;23.610;2023-07-13T00:44:04;95562.25;;;17.88;100.00
20017;BME280;10169;42.664;23.610;2023-07-13T00:46:10;95568.19;;;17.85;100.00
20017;BME280;10169;42.664;23.610;2023-07-13T00:48:15;95573.00;;;17.88;100.00
20017;BME280;10169;42.664;23.610;2023-07-13T00:50:17;95577.28;;;17.89;100.00
20017;BME280;10169;42.664;23.610;2023-07-13T00:52:18;95578.91;;;17.90;100.00
20017;BME280;10169;42.664;23.610;2023-07-13T00:54:19;95572.19;;;17.92;100.00
20017;BME280;10169;42.664;23.610;2023-07-13T00:56:20;95571.03;;;18.03;100.00
20017;BME280;10169;42.664;23.610;2023-07-13T00:58:21;95568.34;;;18.03;100.00
20017;BME280;10169;42.664;23.610;2023-07-13T01:00:21;95569.41;;;18.02;100.00
20017;BME280;10169;42.664;23.610;2023-07-13T01:02:22;95568.34;;;18.03;100.00
20017;BME280;10169;42.664;23.610;2023-07-13T01:04:24;95563.75;;;18.04;100.00
20017;BME280;10169;42.664;23.610;2023-07-13T01:06:25;95561.91;;;17.99;100.00
20017;BME280;10169;42.664;23.610;2023-07-13T01:08:25;95556.25;;;18.01;100.00
20017;BME280;10169;42.664;23.610;2023-07-13T01:10:26;95551.13;;;18.04;100.00
20017;BME280;10169;42.664;23.610;2023-07-13T01:12:26;95557.59;;;17.98;100.00
20017;BME280;10169;42.664;23.610;2023-07-13T01:14:26;95559.22;;;17.99;100.00
20017;BME280;10169;42.664;23.610;2023-07-13T01:16:28;95557.34;;;18.00;100.00
20017;BME280;10169;42.664;23.610;2023-07-13T01:18:29;95565.41;;;18.00;100.00
20017;BME280;10169;42.664;23.610;2023-07-13T01:20:29;95560.59;;;17.97;100.00
20017;BME280;10169;42.664;23.610;2023-07-13T01:22:30;95562.50;;;17.91;100.00
20017;BME280;10169;42.664;23.610;2023-07-13T01:24:32;95568.44;;;17.88;100.00
20017;BME280;10169;42.664;23.610;2023-07-13T01:26:33;95566.31;;;17.80;100.00
20017;BME280;10169;42.664;23.610;2023-07-13T01:28:33;95562.88;;;17.75;100.00
20017;BME280;10169;42.664;23.610;2023-07-13T01:30:38;95561.25;;;17.74;100.00
20017;BME280;10169;42.664;23.610;2023-07-13T01:32:40;95556.16;;;17.72;100.00
20017;BME280;10169;42.664;23.610;2023-07-13T01:34:41;95561.56;;;17.67;100.00
20017;BME280;10169;42.664;23.610;2023-07-13T01:36:42;95564.03;;;17.59;100.00
20017;BME280;10169;42.664;23.610;2023-07-13T01:38:42;95557.03;;;17.58;100.00
20017;BME280;10169;42.664;23.610;2023-07-13T01:40:43;95567.25;;;17.61;100.00
20017;BME280;10169;42.664;23.610;2023-07-13T01:42:44;95562.66;;;17.66;100.00
20017;BME280;10169;42.664;23.610;2023-07-13T01:44:44;95557.22;;;17.76;100.00
20017;BME280;10169;42.664;23.610;2023-07-13T01:46:44;95556.69;;;17.74;100.00
20017;BME280;10169;42.664;23.610;2023-07-13T01:48:45;95559.06;;;17.81;100.00
20017;BME280;10169;42.664;23.610;2023-07-13T01:50:45;95558.78;;;17.82;100.00
20017;BME280;10169;42.664;23.610;2023-07-13T01:52:45;95559.34;;;17.79;100.00
20017;BME280;10169;42.664;23.610;2023-07-13T01:54:46;95562.28;;;17.78;100.00
20017;BME280;10169;42.664;23.610;2023-07-13T01:56:46;95558.84;;;17.72;100.00
20017;BME280;10169;42.664;23.610;2023-07-13T01:58:47;95557.53;;;17.65;100.00
20017;BME280;10169;42.664;23.610;2023-07-13T02:00:51;95560.81;;;17.57;100.00
20017;BME280;10169;42.664;23.610;2023-07-13T02:02:51;95568.59;;;17.58;100.00
20017;BME280;10169;42.664;23.610;2023-07-13T02:04:52;95563.53;;;17.52;100.00
20017;BME280;10169;42.664;23.610;2023-07-13T02:06:52;95573.72;;;17.50;100.00
20017;BME280;10169;42.664;23.610;2023-07-13T02:08:52;95572.69;;;17.40;100.00
20017;BME280;10169;42.664;23.610;2023-07-13T02:10:53;95573.00;;;17.24;100.00
20017;BME280;10169;42.664;23.610;2023-07-13T02:12:53;95571.41;;;17.18;100.00
20017;BME280;10169;42.664;23.610;2023-07-13T02:14:53;95572.22;;;17.18;100.00
20017;BME280;10169;42.664;23.610;2023-07-13T02:16:54;95566.34;;;17.11;100.00
20017;BME280;10169;42.664;23.610;2023-07-13T02:18:54;95574.09;;;17.18;100.00
20017;BME280;10169;42.664;23.610;2023-07-13T02:20:55;95573.06;;;17.14;100.00
20017;BME280;10169;42.664;23.610;2023-07-13T02:22:55;95580.59;;;17.12;100.00
20017;BME280;10169;42.664;23.610;2023-07-13T02:24:56;95577.09;;;17.11;100.00
20017;BME280;10169;42.664;23.610;2023-07-13T02:26:56;95576.03;;;17.07;100.00
20017;BME280;10169;42.664;23.610;2023-07-13T02:28:57;95588.91;;;17.10;100.00
20017;BME280;10169;42.664;23.610;2023-07-13T02:31:03;95588.91;;;17.10;100.00
20017;BME280;10169;42.664;23.610;2023-07-13T02:33:04;95596.44;;;17.03;100.00
20017;BME280;10169;42.664;23.610;2023-07-13T02:35:04;95593.50;;;16.95;100.00
20017;BME280;10169;42.664;23.610;2023-07-13T02:37:05;95593.25;;;16.96;100.00
20017;BME280;10169;42.664;23.610;2023-07-13T02:39:05;95592.97;;;16.93;100.00
20017;BME280;10169;42.664;23.610;2023-07-13T02:41:06;95593.28;;;16.81;100.00
20017;BME280;10169;42.664;23.610;2023-07-13T02:43:08;95600.78;;;16.79;100.00
20017;BME280;10169;42.664;23.610;2023-07-13T02:45:08;95597.56;;;16.77;100.00
20017;BME280;10169;42.664;23.610;2023-07-13T02:47:09;95604.81;;;16.77;100.00
20017;BME280;10169;42.664;23.610;2023-07-13T02:49:09;95594.88;;;16.77;100.00
20017;BME280;10169;42.664;23.610;2023-07-13T02:51:09;95597.03;;;16.80;100.00
20017;BME280;10169;42.664;23.610;2023-07-13T02:53:10;95599.44;;;16.82;100.00
20017;BME280;10169;42.664;23.610;2023-07-13T02:55:10;95595.44;;;16.74;100.00
20017;BME280;10169;42.664;23.610;2023-07-13T02:57:11;95592.47;;;16.71;100.00
20017;BME280;10169;42.664;23.610;2023-07-13T02:59:11;95595.44;;;16.74;100.00
20017;BME280;10169;42.664;23.610;2023-07-13T03:01:12;95602.94;;;16.72;100.00
20017;BME280;10169;42.664;23.610;2023-07-13T03:03:13;95594.63;;;16.68;100.00
20017;BME280;10169;42.664;23.610;2023-07-13T03:05:13;95598.94;;;16.70;100.00
20017;BME280;10169;42.664;23.610;2023-07-13T03:07:14;95601.06;;;16.67;100.00
20017;BME280;10169;42.664;23.610;2023-07-13T03:09:15;95601.34;;;16.71;100.00
20017;BME280;10169;42.664;23.610;2023-07-13T03:11:17;95601.06;;;16.78;100.00
20017;BME280;10169;42.664;23.610;2023-07-13T03:13:18;95602.94;;;16.77;100.00
20017;BME280;10169;42.664;23.610;2023-07-13T03:15:18;95599.44;;;16.82;100.00
20017;BME280;10169;42.664;23.610;2023-07-13T03:17:18;95595.97;;;16.81;100.00
20017;BME280;10169;42.664;23.610;2023-07-13T03:19:19;95593.00;;;16.83;100.00
20017;BME280;10169;42.664;23.610;2023-07-13T03:21:19;95594.06;;;16.82;100.00
20017;BME280;10169;42.664;23.610;2023-07-13T03:23:20;95596.75;;;16.82;100.00
20017;BME280;10169;42.664;23.610;2023-07-13T03:25:20;95596.22;;;16.90;100.00
20017;BME280;10169;42.664;23.610;2023-07-13T03:27:21;95588.41;;;16.93;100.00
20017;BME280;10169;42.664;23.610;2023-07-13T03:29:21;95594.31;;;16.90;100.00
20017;BME280;10169;42.664;23.610;2023-07-13T03:31:22;95594.31;;;16.95;100.00
20017;BME280;10169;42.664;23.610;2023-07-13T03:33:23;95596.44;;;17.03;100.00
20017;BME280;10169;42.664;23.610;2023-07-13T03:35:23;95601.25;;;17.06;100.00
20017;BME280;10169;42.664;23.610;2023-07-13T03:37:24;95593.72;;;17.13;100.00
20017;BME280;10169;42.664;23.610;2023-07-13T03:39:24;95595.88;;;17.21;100.00
20017;BME280;10169;42.664;23.610;2023-07-13T03:41:25;95597.16;;;17.29;100.00
20017;BME280;10169;42.664;23.610;2023-07-13T03:43:25;95599.56;;;17.40;100.00
20017;BME280;10169;42.664;23.610;2023-07-13T03:45:27;95595.22;;;17.45;100.00
20017;BME280;10169;42.664;23.610;2023-07-13T03:47:28;95592.81;;;17.48;100.00
20017;BME280;10169;42.664;23.610;2023-07-13T03:49:28;95602.25;;;17.51;100.00
20017;BME280;10169;42.664;23.610;2023-07-13T03:51:28;95594.69;;;17.42;100.00
20017;BME280;10169;42.664;23.610;2023-07-13T03:53:28;95597.09;;;17.49;100.00
20017;BME280;10169;42.664;23.610;2023-07-13T03:55:29;95594.66;;;17.58;100.00
20017;BME280;10169;42.664;23.610;2023-07-13T03:57:29;95584.72;;;17.58;100.00
20017;BME280;10169;42.664;23.610;2023-07-13T03:59:29;95599.97;;;17.73;100.00
20017;BME280;10169;42.664;23.610;2023-07-13T04:01:30;95599.91;;;17.83;100.00
20017;BME280;10169;42.664;23.610;2023-07-13T04:03:31;95594.22;;;17.94;100.00
20017;BME280;10169;42.664;23.610;2023-07-13T04:05:32;95584.44;;;18.08;100.00
20017;BME280;10169;42.664;23.610;2023-07-13T04:07:33;95597.22;;;18.27;100.00
20017;BME280;10169;42.664;23.610;2023-07-13T04:09:33;95582.34;;;18.34;100.00
20017;BME280;10169;42.664;23.610;2023-07-13T04:11:34;95589.28;;;18.45;100.00
20017;BME280;10169;42.664;23.610;2023-07-13T04:13:36;95594.13;;;18.48;100.00
20017;BME280;10169;42.664;23.610;2023-07-13T04:15:38;95603.25;;;18.52;100.00
20017;BME280;10169;42.664;23.610;2023-07-13T04:17:38;95594.72;;;18.74;100.00
20017;BME280;10169;42.664;23.610;2023-07-13T04:19:39;95592.56;;;18.76;100.00
20017;BME280;10169;42.664;23.610;2023-07-13T04:21:39;95598.09;;;18.90;100.00
20017;BME280;10169;42.664;23.610;2023-07-13T04:23:39;95598.72;;;19.05;100.00
20017;BME280;10169;42.664;23.610;2023-07-13T04:25:43;95601.72;;;18.99;100.00
20017;BME280;10169;42.664;23.610;2023-07-13T04:27:43;95599.47;;;19.11;100.00
20017;BME280;10169;42.664;23.610;2023-07-13T04:29:43;95601.56;;;19.19;100.00
20017;BME280;10169;42.664;23.610;2023-07-13T04:31:44;95603.09;;;19.25;100.00
20017;BME280;10169;42.664;23.610;2023-07-13T04:33:44;95601.06;;;19.40;100.00
20017;BME280;10169;42.664;23.610;2023-07-13T04:35:44;95598.59;;;19.44;100.00
20017;BME280;10169;42.664;23.610;2023-07-13T04:37:50;95599.81;;;19.57;100.00
20017;BME280;10169;42.664;23.610;2023-07-13T04:39:50;95604.13;;;19.76;100.00
20017;BME280;10169;42.664;23.610;2023-07-13T04:41:50;95601.28;;;19.86;100.00
20017;BME280;10169;42.664;23.610;2023-07-13T04:43:51;95593.72;;;19.88;100.00
20017;BME280;10169;42.664;23.610;2023-07-13T04:45:51;95589.91;;;19.89;100.00
20017;BME280;10169;42.664;23.610;2023-07-13T04:47:52;95583.88;;;19.97;100.00
20017;BME280;10169;42.664;23.610;2023-07-13T04:49:52;95591.97;;;20.16;100.00
20017;BME280;10169;42.664;23.610;2023-07-13T04:51:52;95593.44;;;20.27;100.00
20017;BME280;10169;42.664;23.610;2023-07-13T04:53:54;95595.34;;;20.45;100.00
20017;BME280;10169;42.664;23.610;2023-07-13T04:55:55;95593.56;;;20.54;100.00
20017;BME280;10169;42.664;23.610;2023-07-13T04:57:56;95591.81;;;20.63;100.00
20017;BME280;10169;42.664;23.610;2023-07-13T04:59:56;95588.66;;;20.75;100.00
20017;BME280;10169;42.664;23.610;2023-07-13T05:01:56;95593.88;;;20.98;100.00
20017;BME280;10169;42.664;23.610;2023-07-13T05:03:56;95595.69;;;21.03;100.00
20017;BME280;10169;42.664;23.610;2023-07-13T05:06:00;95594.75;;;21.13;100.00
20017;BME280;10169;42.664;23.610;2023-07-13T05:08:01;95596.75;;;21.34;100.00
20017;BME280;10169;42.664;23.610;2023-07-13T05:10:02;95592.25;;;21.71;100.00
20017;BME280;10169;42.664;23.610;2023-07-13T05:12:04;95600.78;;;21.78;100.00
20017;BME280;10169;42.664;23.610;2023-07-13T05:14:04;95597.56;;;21.76;100.00
20017;BME280;10169;42.664;23.610;2023-07-13T05:16:05;95604.69;;;21.99;100.00
20017;BME280;10169;42.664;23.610;2023-07-13T05:18:07;95596.22;;;22.14;100.00
20017;BME280;10169;42.664;23.610;2023-07-13T05:20:08;95594.63;;;22.13;100.00
20017;BME280;10169;42.664;23.610;2023-07-13T05:22:08;95593.13;;;22.43;100.00
20017;BME280;10169;42.664;23.610;2023-07-13T05:24:09;95601.06;;;22.39;100.00
20017;BME280;10169;42.664;23.610;2023-07-13T05:26:09;95599.28;;;22.34;100.00
20017;BME280;10169;42.664;23.610;2023-07-13T05:28:09;95593.00;;;22.48;100.00
20017;BME280;10169;42.664;23.610;2023-07-13T05:30:10;95591.88;;;22.62;100.00
20017;BME280;10169;42.664;23.610;2023-07-13T05:32:11;95595.94;;;22.95;100.00
20017;BME280;10169;42.664;23.610;2023-07-13T05:34:12;95596.19;;;22.85;100.00
20017;BME280;10169;42.664;23.610;2023-07-13T05:36:12;95592.84;;;22.88;100.00
20017;BME280;10169;42.664;23.610;2023-07-13T05:38:12;95598.03;;;23.07;100.00
20017;BME280;10169;42.664;23.610;2023-07-13T05:40:13;95594.59;;;23.15;100.00
20017;BME280;10169;42.664;23.610;2023-07-13T05:42:13;95605.09;;;23.08;100.00
20017;BME280;10169;42.664;23.610;2023-07-13T05:44:14;95609.44;;;23.40;100.00
20017;BME280;10169;42.664;23.610;2023-07-13T05:46:14;95610.44;;;23.61;100.00
20017;BME280;10169;42.664;23.610;2023-07-13T05:48:14;95609.34;;;23.62;100.00
20017;BME280;10169;42.664;23.610;2023-07-13T05:50:14;95610.94;;;23.63;100.00
20017;BME280;10169;42.664;23.610;2023-07-13T05:52:15;95613.66;;;23.63;100.00
20017;BME280;10169;42.664;23.610;2023-07-13T05:54:15;95616.72;;;23.70;100.00
20017;BME280;10169;42.664;23.610;2023-07-13T05:56:15;95611.53;;;23.99;100.00
20017;BME280;10169;42.664;23.610;2023-07-13T05:58:16;95615.28;;;24.12;100.00
20017;BME280;10169;42.664;23.610;2023-07-13T06:00:17;95615.44;;;24.32;100.00
20017;BME280;10169;42.664;23.610;2023-07-13T06:02:17;95600.09;;;24.54;100.00
20017;BME280;10169;42.664;23.610;2023-07-13T06:04:18;95611.63;;;24.68;100.00
20017;BME280;10169;42.664;23.610;2023-07-13T06:06:18;95608.91;;;24.76;100.00
20017;BME280;10169;42.664;23.610;2023-07-13T06:08:18;95603.63;;;24.71;100.00
20017;BME280;10169;42.664;23.610;2023-07-13T06:10:18;95604.25;;;24.60;100.00
20017;BME280;10169;42.664;23.610;2023-07-13T06:12:19;95605.38;;;24.33;100.00
20017;BME280;10169;42.664;23.610;2023-07-13T06:14:19;95608.72;;;24.73;100.00
20017;BME280;10169;42.664;23.610;2023-07-13T06:16:20;95612.72;;;25.01;100.00
20017;BME280;10169;42.664;23.610;2023-07-13T06:18:20;95606.00;;;25.07;100.00
20017;BME280;10169;42.664;23.610;2023-07-13T06:20:21;95603.44;;;25.10;100.00
20017;BME280;10169;42.664;23.610;2023-07-13T06:22:21;95609.63;;;25.28;100.00
20017;BME280;10169;42.664;23.610;2023-07-13T06:24:21;95610.53;;;25.49;100.00
20017;BME280;10169;42.664;23.610;2023-07-13T06:26:22;95600.28;;;25.84;100.00
20017;BME280;10169;42.664;23.610;2023-07-13T06:28:22;95596.78;;;25.83;100.00
20017;BME280;10169;42.664;23.610;2023-07-13T06:30:22;95602.03;;;25.88;100.00
20017;BME280;10169;42.664;23.610;2023-07-13T06:32:23;95595.47;;;26.19;100.00
20017;BME280;10169;42.664;23.610;2023-07-13T06:34:23;95602.88;;;26.10;100.00
20017;BME280;10169;42.664;23.610;2023-07-13T06:36:23;95607.44;;;26.26;100.00
20017;BME280;10169;42.664;23.610;2023-07-13T06:38:23;95600.59;;;26.20;100.00
20017;BME280;10169;42.664;23.610;2023-07-13T06:40:24;95597.34;;;26.27;100.00
20017;BME280;10169;42.664;23.610;2023-07-13T06:42:24;95598.13;;;26.27;100.00
20017;BME280;10169;42.664;23.610;2023-07-13T06:44:25;95602.47;;;26.49;100.00
20017;BME280;10169;42.664;23.610;2023-07-13T06:46:25;95593.81;;;26.68;100.00
20017;BME280;10169;42.664;23.610;2023-07-13T06:48:26;95597.66;;;26.67;100.00
20017;BME280;10169;42.664;23.610;2023-07-13T06:50:26;95587.09;;;26.44;100.00
20017;BME280;10169;42.664;23.610;2023-07-13T06:52:27;95591.34;;;26.75;100.00
20017;BME280;10169;42.664;23.610;2023-07-13T06:54:27;95594.00;;;26.63;100.00
20017;BME280;10169;42.664;23.610;2023-07-13T06:56:27;95590.06;;;26.93;100.00
20017;BME280;10169;42.664;23.610;2023-07-13T06:58:28;95592.09;;;27.16;96.14
20017;BME280;10169;42.664;23.610;2023-07-13T07:00:28;95588.56;;;26.83;99.67
20017;BME280;10169;42.664;23.610;2023-07-13T07:02:29;95592.22;;;26.87;100.00
20017;BME280;10169;42.664;23.610;2023-07-13T07:04:29;95601.78;;;26.93;98.22
20017;BME280;10169;42.664;23.610;2023-07-13T07:06:29;95600.38;;;27.20;93.85
20017;BME280;10169;42.664;23.610;2023-07-13T07:08:29;95605.50;;;27.21;96.14
20017;BME280;10169;42.664;23.610;2023-07-13T07:10:30;95588.69;;;27.31;96.35
20017;BME280;10169;42.664;23.610;2023-07-13T07:12:30;95596.16;;;27.43;99.91
20017;BME280;10169;42.664;23.610;2023-07-13T07:14:31;95594.44;;;27.51;100.00
20017;BME280;10169;42.664;23.610;2023-07-13T07:16:31;95595.25;;;27.63;100.00
20017;BME280;10169;42.664;23.610;2023-07-13T07:18:32;95594.13;;;27.88;100.00
20017;BME280;10169;42.664;23.610;2023-07-13T07:20:32;95597.22;;;27.99;100.00
20017;BME280;10169;42.664;23.610;2023-07-13T07:22:32;95596.16;;;27.91;100.00
20017;BME280;10169;42.664;23.610;2023-07-13T07:24:33;95593.47;;;28.04;100.00
20017;BME280;10169;42.664;23.610;2023-07-13T07:26:33;95589.13;;;28.27;100.00
20017;BME280;10169;42.664;23.610;2023-07-13T07:28:33;95591.50;;;28.28;99.85
20017;BME280;10169;42.664;23.610;2023-07-13T07:30:34;95590.09;;;28.46;100.00
20017;BME280;10169;42.664;23.610;2023-07-13T07:32:35;95595.31;;;28.91;99.33
20017;BME280;10169;42.664;23.610;2023-07-13T07:34:35;95583.25;;;29.08;100.00
20017;BME280;10169;42.664;23.610;2023-07-13T07:36:35;95574.22;;;29.19;86.16
20017;BME280;10169;42.664;23.610;2023-07-13T07:38:36;95578.19;;;29.22;88.59
20017;BME280;10169;42.664;23.610;2023-07-13T07:40:37;95576.78;;;29.28;84.66
20017;BME280;10169;42.664;23.610;2023-07-13T07:42:38;95574.16;;;29.47;84.79
20017;BME280;10169;42.664;23.610;2023-07-13T07:44:38;95580.16;;;29.37;87.75
20017;BME280;10169;42.664;23.610;2023-07-13T07:46:38;95576.72;;;29.71;90.64
20017;BME280;10169;42.664;23.610;2023-07-13T07:48:41;95576.75;;;29.87;85.56
20017;BME280;10169;42.664;23.610;2023-07-13T07:50:41;95579.69;;;29.78;77.28
20017;BME280;10169;42.664;23.610;2023-07-13T07:52:41;95565.94;;;29.31;80.53
20017;BME280;10169;42.664;23.610;2023-07-13T07:54:44;95564.63;;;29.41;82.17
20017;BME280;10169;42.664;23.610;2023-07-13T07:56:44;95571.16;;;29.21;85.20
20017;BME280;10169;42.664;23.610;2023-07-13T07:58:44;95562.09;;;29.05;84.31
20017;BME280;10169;42.664;23.610;2023-07-13T08:00:45;95563.91;;;29.44;75.95
20017;BME280;10169;42.664;23.610;2023-07-13T08:02:45;95564.63;;;29.72;81.87
20017;BME280;10169;42.664;23.610;2023-07-13T08:04:45;95557.56;;;29.71;66.66
20017;BME280;10169;42.664;23.610;2023-07-13T08:06:46;95560.41;;;29.90;71.12
20017;BME280;10169;42.664;23.610;2023-07-13T08:08:46;95557.66;;;30.25;67.11
20017;BME280;10169;42.664;23.610;2023-07-13T08:10:46;95551.09;;;30.30;64.02
20017;BME280;10169;42.664;23.610;2023-07-13T08:12:47;95559.25;;;30.61;66.30
20017;BME280;10169;42.664;23.610;2023-07-13T08:14:49;95542.69;;;30.76;63.48
20017;BME280;10169;42.664;23.610;2023-07-13T08:16:50;95536.72;;;30.71;67.22
20017;BME280;10169;42.664;23.610;2023-07-13T08:18:50;95533.25;;;30.74;64.95
20017;BME280;10169;42.664;23.610;2023-07-13T08:20:51;95529.88;;;30.61;60.85
20017;BME280;10169;42.664;23.610;2023-07-13T08:22:51;95537.53;;;30.91;66.80
20017;BME280;10169;42.664;23.610;2023-07-13T08:24:51;95530.34;;;31.05;62.34
20017;BME280;10169;42.664;23.610;2023-07-13T08:26:55;95543.34;;;31.08;57.53
20017;BME280;10169;42.664;23.610;2023-07-13T08:28:56;95534.78;;;30.91;55.33
20017;BME280;10169;42.664;23.610;2023-07-13T08:31:03;95539.13;;;31.14;56.79
20017;BME280;10169;42.664;23.610;2023-07-13T08:33:04;95528.66;;;31.20;55.77
20017;BME280;10169;42.664;23.610;2023-07-13T08:35:05;95532.75;;;31.07;54.18
20017;BME280;10169;42.664;23.610;2023-07-13T08:37:06;95529.34;;;31.36;56.60
20017;BME280;10169;42.664;23.610;2023-07-13T08:39:06;95528.91;;;31.57;58.55
20017;BME280;10169;42.664;23.610;2023-07-13T08:41:17;95526.53;;;31.78;59.26
20017;BME280;10169;42.664;23.610;2023-07-13T08:43:18;95528.84;;;31.98;56.00
20017;BME280;10169;42.664;23.610;2023-07-13T08:45:42;95527.63;;;31.96;53.55
20017;BME280;10169;42.664;23.610;2023-07-13T08:47:48;95528.28;;;31.89;54.57
20017;BME280;10169;42.664;23.610;2023-07-13T08:49:53;95521.47;;;32.06;56.57
20017;BME280;10169;42.664;23.610;2023-07-13T08:52:17;95513.16;;;32.29;50.28
20017;BME280;10169;42.664;23.610;2023-07-13T08:54:26;95512.03;;;32.59;50.23
20017;BME280;10169;42.664;23.610;2023-07-13T08:56:29;95522.41;;;32.73;50.48
20017;BME280;10169;42.664;23.610;2023-07-13T08:58:29;95508.63;;;32.43;46.56
20017;BME280;10169;42.664;23.610;2023-07-13T09:00:33;95511.94;;;32.89;49.63
20017;BME280;10169;42.664;23.610;2023-07-13T09:02:44;95515.19;;;32.95;48.08
20017;BME280;10169;42.664;23.610;2023-07-13T09:04:48;95515.66;;;33.00;48.09
20017;BME280;10169;42.664;23.610;2023-07-13T09:09:00;95520.00;;;33.01;51.82
20017;BME280;10169;42.664;23.610;2023-07-13T09:15:22;95527.84;;;32.69;51.95
20017;BME280;10169;42.664;23.610;2023-07-13T09:17:28;95535.09;;;33.14;49.66
20017;BME280;10169;42.664;23.610;2023-07-13T09:19:30;95540.63;;;33.18;49.21
20017;BME280;10169;42.664;23.610;2023-07-13T09:21:34;95536.78;;;32.92;49.62
20017;BME280;10169;42.664;23.610;2023-07-13T09:23:36;95534.03;;;32.92;50.35
20017;BME280;10169;42.664;23.610;2023-07-13T09:25:36;95544.22;;;32.88;48.18
20017;BME280;10169;42.664;23.610;2023-07-13T09:27:41;95538.25;;;32.83;47.16
20017;BME280;10169;42.664;23.610;2023-07-13T09:29:47;95538.25;;;32.83;47.09
20017;BME280;10169;42.664;23.610;2023-07-13T09:31:49;95526.78;;;33.11;47.96
20017;BME280;10169;42.664;23.610;2023-07-13T09:33:53;95534.09;;;33.33;46.44
20017;BME280;10169;42.664;23.610;2023-07-13T09:35:53;95527.34;;;33.27;45.81
20017;BME280;10169;42.664;23.610;2023-07-13T09:37:57;95525.63;;;32.82;45.43
20017;BME280;10169;42.664;23.610;2023-07-13T09:39:58;95522.69;;;32.64;45.87
20017;BME280;10169;42.664;23.610;2023-07-13T09:44:15;95525.78;;;32.92;46.89
20017;BME280;10169;42.664;23.610;2023-07-13T09:46:20;95517.22;;;32.68;45.05
20017;BME280;10169;42.664;23.610;2023-07-13T09:48:21;95531.34;;;32.66;45.56
20017;BME280;10169;42.664;23.610;2023-07-13T09:50:22;95521.56;;;32.69;44.55
20017;BME280;10169;42.664;23.610;2023-07-13T09:52:22;95522.16;;;32.55;45.39
20017;BME280;10169;42.664;23.610;2023-07-13T09:54:24;95507.66;;;32.55;45.98
20017;BME280;10169;42.664;23.610;2023-07-13T09:56:26;95506.81;;;32.84;45.62
20017;BME280;10169;42.664;23.610;2023-07-13T09:58:29;95510.84;;;32.60;47.03
20017;BME280;10169;42.664;23.610;2023-07-13T10:00:31;95517.72;;;32.47;45.96
20017;BME280;10169;42.664;23.610;2023-07-13T10:02:33;95508.25;;;32.45;46.69
20017;BME280;10169;42.664;23.610;2023-07-13T10:04:34;95499.63;;;32.46;48.23
20017;BME280;10169;42.664;23.610;2023-07-13T10:06:34;95500.16;;;32.55;48.67
20017;BME280;10169;42.664;23.610;2023-07-13T10:08:34;95499.06;;;32.97;49.99
20017;BME280;10169;42.664;23.610;2023-07-13T10:10:35;95499.13;;;33.00;48.65
20017;BME280;10169;42.664;23.610;2023-07-13T10:12:38;95490.59;;;33.12;44.88
20017;BME280;10169;42.664;23.610;2023-07-13T10:14:39;95499.50;;;33.39;46.59
20017;BME280;10169;42.664;23.610;2023-07-13T10:16:42;95486.94;;;33.45;45.70
20017;BME280;10169;42.664;23.610;2023-07-13T10:20:44;95483.22;;;33.20;46.06
20017;BME280;10169;42.664;23.610;2023-07-13T10:24:44;95481.94;;;33.14;44.96
20017;BME280;10169;42.664;23.610;2023-07-13T10:26:50;95478.84;;;33.19;47.03
20017;BME280;10169;42.664;23.610;2023-07-13T10:28:53;95474.94;;;33.20;44.14
20017;BME280;10169;42.664;23.610;2023-07-13T10:30:55;95474.22;;;33.30;46.04
20017;BME280;10169;42.664;23.610;2023-07-13T10:32:58;95473.63;;;33.50;45.40
20017;BME280;10169;42.664;23.610;2023-07-13T10:34:59;95473.41;;;33.70;43.82
20017;BME280;10169;42.664;23.610;2023-07-13T10:37:02;95470.34;;;33.85;43.25
20017;BME280;10169;42.664;23.610;2023-07-13T10:39:05;95468.78;;;33.84;43.06
20017;BME280;10169;42.664;23.610;2023-07-13T10:41:06;95470.34;;;33.85;43.83